sensor_id;sensor_type;location;lat;lon;timestamp;P1;durP1;ratioP1;P2;durP2;ratioP2
4375;SDS011;2202;50.866;12.750;2022-08-11T00:01:05;10.00;;;8.40;;
4375;SDS011;2202;50.866;12.750;2022-08-11T00:03:34;10.27;;;7.10;;
4375;SDS011;2202;50.866;12.750;2022-08-11T00:06:07;10.27;;;7.40;;
4375;SDS011;2202;50.866;12.750;2022-08-11T00:08:34;8.53;;;7.70;;
4375;SDS011;2202;50.866;12.750;2022-08-11T00:11:04;11.67;;;7.30;;
4375;SDS011;2202;50.866;12.750;2022-08-11T00:13:33;15.47;;;8.17;;
4375;SDS011;2202;50.866;12.750;2022-08-11T00:16:02;8.60;;;7.70;;
4375;SDS011;2202;50.866;12.750;2022-08-11T00:18:38;7.20;;;6.50;;
4375;SDS011;2202;50.866;12.750;2022-08-11T00:21:06;11.20;;;7.10;;
4375;SDS011;2202;50.866;12.750;2022-08-11T00:23:38;7.23;;;6.50;;
4375;SDS011;2202;50.866;12.750;2022-08-11T00:26:09;7.17;;;6.40;;
4375;SDS011;2202;50.866;12.750;2022-08-11T00:28:36;7.13;;;6.23;;
4375;SDS011;2202;50.866;12.750;2022-08-11T00:31:05;8.17;;;6.13;;
4375;SDS011;2202;50.866;12.750;2022-08-11T00:33:36;6.60;;;5.90;;
4375;SDS011;2202;50.866;12.750;2022-08-11T00:36:06;6.90;;;6.20;;
4375;SDS011;2202;50.866;12.750;2022-08-11T00:38:36;8.00;;;7.20;;
4375;SDS011;2202;50.866;12.750;2022-08-11T00:41:09;10.13;;;6.53;;
4375;SDS011;2202;50.866;12.750;2022-08-11T00:43:58;9.10;;;5.73;;
4375;SDS011;2202;50.866;12.750;2022-08-11T00:46:41;10.80;;;5.93;;
4375;SDS011;2202;50.866;12.750;2022-08-11T00:49:17;6.40;;;5.80;;
4375;SDS011;2202;50.866;12.750;2022-08-11T00:51:59;7.00;;;6.00;;
4375;SDS011;2202;50.866;12.750;2022-08-11T00:57:37;6.27;;;5.67;;
4375;SDS011;2202;50.866;12.750;2022-08-11T01:00:25;7.40;;;5.20;;
4375;SDS011;2202;50.866;12.750;2022-08-11T01:03:05;10.13;;;6.10;;
4375;SDS011;2202;50.866;12.750;2022-08-11T01:05:52;6.80;;;5.10;;
4375;SDS011;2202;50.866;12.750;2022-08-11T01:14:49;6.00;;;5.37;;
4375;SDS011;2202;50.866;12.750;2022-08-11T01:24:41;7.17;;;5.70;;
4375;SDS011;2202;50.866;12.750;2022-08-11T01:36:50;16.20;;;5.27;;
4375;SDS011;2202;50.866;12.750;2022-08-11T01:39:31;6.20;;;5.10;;
4375;SDS011;2202;50.866;12.750;2022-08-11T01:45:38;5.47;;;4.73;;
4375;SDS011;2202;50.866;12.750;2022-08-11T01:48:12;7.10;;;4.83;;
4375;SDS011;2202;50.866;12.750;2022-08-11T01:50:49;10.10;;;5.10;;
4375;SDS011;2202;50.866;12.750;2022-08-11T01:53:30;5.50;;;4.60;;
4375;SDS011;2202;50.866;12.750;2022-08-11T01:56:13;6.20;;;5.03;;
4375;SDS011;2202;50.866;12.750;2022-08-11T01:58:56;6.20;;;5.10;;
4375;SDS011;2202;50.866;12.750;2022-08-11T02:01:37;6.97;;;4.90;;
4375;SDS011;2202;50.866;12.750;2022-08-11T02:04:17;5.93;;;4.73;;
4375;SDS011;2202;50.866;12.750;2022-08-11T02:06:52;6.20;;;4.93;;
4375;SDS011;2202;50.866;12.750;2022-08-11T02:09:39;5.70;;;4.70;;
4375;SDS011;2202;50.866;12.750;2022-08-11T02:12:20;15.23;;;6.17;;
4375;SDS011;2202;50.866;12.750;2022-08-11T02:14:58;5.80;;;5.20;;
4375;SDS011;2202;50.866;12.750;2022-08-11T02:17:36;5.40;;;4.50;;
4375;SDS011;2202;50.866;12.750;2022-08-11T02:20:13;6.03;;;5.43;;
4375;SDS011;2202;50.866;12.750;2022-08-11T02:23:03;8.30;;;6.27;;
4375;SDS011;2202;50.866;12.750;2022-08-11T02:26:04;6.30;;;4.63;;
4375;SDS011;2202;50.866;12.750;2022-08-11T02:28:41;6.77;;;5.87;;
4375;SDS011;2202;50.866;12.750;2022-08-11T02:31:26;7.10;;;5.87;;
4375;SDS011;2202;50.866;12.750;2022-08-11T02:34:23;17.60;;;5.80;;
4375;SDS011;2202;50.866;12.750;2022-08-11T02:36:59;7.00;;;5.60;;
4375;SDS011;2202;50.866;12.750;2022-08-11T02:39:41;6.60;;;5.20;;
4375;SDS011;2202;50.866;12.750;2022-08-11T02:42:19;7.63;;;6.47;;
4375;SDS011;2202;50.866;12.750;2022-08-11T02:44:56;5.97;;;5.37;;
4375;SDS011;2202;50.866;12.750;2022-08-11T02:47:43;6.67;;;5.67;;
4375;SDS011;2202;50.866;12.750;2022-08-11T02:50:34;8.60;;;5.30;;
4375;SDS011;2202;50.866;12.750;2022-08-11T02:53:06;7.53;;;5.63;;
4375;SDS011;2202;50.866;12.750;2022-08-11T02:55:41;6.20;;;5.60;;
4375;SDS011;2202;50.866;12.750;2022-08-11T02:58:25;6.60;;;5.80;;
4375;SDS011;2202;50.866;12.750;2022-08-11T03:01:04;8.60;;;5.97;;
4375;SDS011;2202;50.866;12.750;2022-08-11T03:03:46;6.90;;;6.20;;
4375;SDS011;2202;50.866;12.750;2022-08-11T03:06:22;8.00;;;5.70;;
4375;SDS011;2202;50.866;12.750;2022-08-11T03:08:59;7.67;;;6.07;;
4375;SDS011;2202;50.866;12.750;2022-08-11T03:11:44;8.53;;;6.47;;
4375;SDS011;2202;50.866;12.750;2022-08-11T03:14:41;8.03;;;5.60;;
4375;SDS011;2202;50.866;12.750;2022-08-11T03:17:33;8.50;;;7.30;;
4375;SDS011;2202;50.866;12.750;2022-08-11T03:20:10;8.43;;;6.10;;
4375;SDS011;2202;50.866;12.750;2022-08-11T03:22:48;7.50;;;5.93;;
4375;SDS011;2202;50.866;12.750;2022-08-11T03:25:24;6.90;;;6.20;;
4375;SDS011;2202;50.866;12.750;2022-08-11T03:28:01;7.47;;;6.63;;
4375;SDS011;2202;50.866;12.750;2022-08-11T03:30:45;6.53;;;5.63;;
4375;SDS011;2202;50.866;12.750;2022-08-11T03:33:20;8.90;;;5.80;;
4375;SDS011;2202;50.866;12.750;2022-08-11T03:36:19;9.27;;;6.00;;
4375;SDS011;2202;50.866;12.750;2022-08-11T03:39:05;7.83;;;6.10;;
4375;SDS011;2202;50.866;12.750;2022-08-11T03:41:37;9.47;;;6.07;;
4375;SDS011;2202;50.866;12.750;2022-08-11T03:44:22;11.00;;;7.00;;
4375;SDS011;2202;50.866;12.750;2022-08-11T03:47:16;7.10;;;5.30;;
4375;SDS011;2202;50.866;12.750;2022-08-11T03:50:05;10.93;;;6.57;;
4375;SDS011;2202;50.866;12.750;2022-08-11T03:52:47;8.23;;;6.47;;
4375;SDS011;2202;50.866;12.750;2022-08-11T03:55:22;10.83;;;6.07;;
4375;SDS011;2202;50.866;12.750;2022-08-11T03:58:15;8.13;;;6.63;;
4375;SDS011;2202;50.866;12.750;2022-08-11T04:04:30;6.80;;;5.90;;
4375;SDS011;2202;50.866;12.750;2022-08-11T04:07:34;7.33;;;5.60;;
4375;SDS011;2202;50.866;12.750;2022-08-11T04:16:52;7.03;;;5.37;;
4375;SDS011;2202;50.866;12.750;2022-08-11T04:22:52;10.93;;;6.00;;
4375;SDS011;2202;50.866;12.750;2022-08-11T04:28:39;8.70;;;6.60;;
4375;SDS011;2202;50.866;12.750;2022-08-11T04:31:29;8.87;;;6.57;;
4375;SDS011;2202;50.866;12.750;2022-08-11T04:34:04;8.60;;;7.30;;
4375;SDS011;2202;50.866;12.750;2022-08-11T04:36:46;6.23;;;5.63;;
4375;SDS011;2202;50.866;12.750;2022-08-11T04:39:59;11.47;;;6.93;;
4375;SDS011;2202;50.866;12.750;2022-08-11T04:46:13;9.07;;;6.83;;
4375;SDS011;2202;50.866;12.750;2022-08-11T04:48:57;6.97;;;6.13;;
4375;SDS011;2202;50.866;12.750;2022-08-11T04:52:06;7.80;;;6.80;;
4375;SDS011;2202;50.866;12.750;2022-08-11T04:55:18;9.20;;;6.67;;
4375;SDS011;2202;50.866;12.750;2022-08-11T04:58:14;8.70;;;6.13;;
4375;SDS011;2202;50.866;12.750;2022-08-11T05:06:27;7.60;;;5.90;;
4375;SDS011;2202;50.866;12.750;2022-08-11T05:09:35;11.27;;;5.87;;
4375;SDS011;2202;50.866;12.750;2022-08-11T05:12:24;8.27;;;5.00;;
4375;SDS011;2202;50.866;12.750;2022-08-11T05:14:56;11.23;;;6.53;;
4375;SDS011;2202;50.866;12.750;2022-08-11T05:17:43;6.80;;;5.80;;
4375;SDS011;2202;50.866;12.750;2022-08-11T05:20:37;7.50;;;5.60;;
4375;SDS011;2202;50.866;12.750;2022-08-11T05:23:28;6.67;;;5.50;;
4375;SDS011;2202;50.866;12.750;2022-08-11T05:26:14;6.73;;;5.40;;
4375;SDS011;2202;50.866;12.750;2022-08-11T05:29:02;10.13;;;5.73;;
4375;SDS011;2202;50.866;12.750;2022-08-11T05:32:06;7.10;;;4.80;;
4375;SDS011;2202;50.866;12.750;2022-08-11T05:34:56;7.60;;;5.73;;
4375;SDS011;2202;50.866;12.750;2022-08-11T05:37:30;9.70;;;4.67;;
4375;SDS011;2202;50.866;12.750;2022-08-11T05:40:04;10.17;;;4.80;;
4375;SDS011;2202;50.866;12.750;2022-08-11T05:42:54;10.93;;;4.80;;
4375;SDS011;2202;50.866;12.750;2022-08-11T05:45:41;6.77;;;4.50;;
4375;SDS011;2202;50.866;12.750;2022-08-11T05:48:29;6.50;;;4.83;;
4375;SDS011;2202;50.866;12.750;2022-08-11T05:51:15;5.90;;;4.20;;
4375;SDS011;2202;50.866;12.750;2022-08-11T05:54:00;6.90;;;4.70;;
4375;SDS011;2202;50.866;12.750;2022-08-11T05:56:48;4.53;;;3.87;;
4375;SDS011;2202;50.866;12.750;2022-08-11T05:59:21;5.43;;;4.20;;
4375;SDS011;2202;50.866;12.750;2022-08-11T06:01:52;5.80;;;4.10;;
4375;SDS011;2202;50.866;12.750;2022-08-11T06:04:25;8.53;;;4.27;;
4375;SDS011;2202;50.866;12.750;2022-08-11T06:06:54;6.60;;;3.70;;
4375;SDS011;2202;50.866;12.750;2022-08-11T06:09:25;5.30;;;4.03;;
4375;SDS011;2202;50.866;12.750;2022-08-11T06:11:55;7.27;;;5.27;;
4375;SDS011;2202;50.866;12.750;2022-08-11T06:14:26;6.90;;;4.80;;
4375;SDS011;2202;50.866;12.750;2022-08-11T06:16:54;6.23;;;4.23;;
4375;SDS011;2202;50.866;12.750;2022-08-11T06:19:30;5.90;;;4.40;;
4375;SDS011;2202;50.866;12.750;2022-08-11T06:22:02;4.53;;;3.50;;
4375;SDS011;2202;50.866;12.750;2022-08-11T06:24:30;5.87;;;4.20;;
4375;SDS011;2202;50.866;12.750;2022-08-11T06:26:58;4.40;;;3.73;;
4375;SDS011;2202;50.866;12.750;2022-08-11T06:29:27;6.93;;;4.07;;
4375;SDS011;2202;50.866;12.750;2022-08-11T06:31:57;5.67;;;4.37;;
4375;SDS011;2202;50.866;12.750;2022-08-11T06:34:34;5.50;;;3.60;;
4375;SDS011;2202;50.866;12.750;2022-08-11T06:37:12;6.50;;;4.23;;
4375;SDS011;2202;50.866;12.750;2022-08-11T06:39:46;5.93;;;3.70;;
4375;SDS011;2202;50.866;12.750;2022-08-11T06:42:25;4.30;;;3.40;;
4375;SDS011;2202;50.866;12.750;2022-08-11T06:45:13;6.57;;;3.90;;
4375;SDS011;2202;50.866;12.750;2022-08-11T06:47:49;4.63;;;3.47;;
4375;SDS011;2202;50.866;12.750;2022-08-11T06:50:18;5.70;;;3.10;;
4375;SDS011;2202;50.866;12.750;2022-08-11T06:53:05;4.77;;;3.30;;
4375;SDS011;2202;50.866;12.750;2022-08-11T06:55:34;6.30;;;3.73;;
4375;SDS011;2202;50.866;12.750;2022-08-11T06:58:25;4.10;;;3.20;;
4375;SDS011;2202;50.866;12.750;2022-08-11T07:01:14;6.53;;;3.50;;
4375;SDS011;2202;50.866;12.750;2022-08-11T07:03:45;3.83;;;3.20;;
4375;SDS011;2202;50.866;12.750;2022-08-11T07:06:27;5.20;;;3.70;;
4375;SDS011;2202;50.866;12.750;2022-08-11T07:09:08;3.80;;;3.37;;
4375;SDS011;2202;50.866;12.750;2022-08-11T07:12:09;5.93;;;3.23;;
4375;SDS011;2202;50.866;12.750;2022-08-11T07:15:11;14.30;;;3.63;;
4375;SDS011;2202;50.866;12.750;2022-08-11T07:17:58;6.07;;;3.73;;
4375;SDS011;2202;50.866;12.750;2022-08-11T07:20:46;5.10;;;3.30;;
4375;SDS011;2202;50.866;12.750;2022-08-11T07:23:33;3.50;;;3.00;;
4375;SDS011;2202;50.866;12.750;2022-08-11T07:26:20;4.67;;;3.50;;
4375;SDS011;2202;50.866;12.750;2022-08-11T07:29:07;6.03;;;3.37;;
4375;SDS011;2202;50.866;12.750;2022-08-11T07:31:37;5.60;;;3.30;;
4375;SDS011;2202;50.866;12.750;2022-08-11T07:34:14;8.33;;;3.93;;
4375;SDS011;2202;50.866;12.750;2022-08-11T07:36:46;5.50;;;3.30;;
4375;SDS011;2202;50.866;12.750;2022-08-11T07:39:17;3.90;;;3.17;;
4375;SDS011;2202;50.866;12.750;2022-08-11T07:41:46;7.43;;;4.07;;
4375;SDS011;2202;50.866;12.750;2022-08-11T07:44:13;6.07;;;3.60;;
4375;SDS011;2202;50.866;12.750;2022-08-11T07:46:44;4.13;;;3.30;;
4375;SDS011;2202;50.866;12.750;2022-08-11T07:49:32;8.13;;;3.73;;
4375;SDS011;2202;50.866;12.750;2022-08-11T07:52:18;5.87;;;3.50;;
4375;SDS011;2202;50.866;12.750;2022-08-11T07:54:52;5.10;;;3.13;;
4375;SDS011;2202;50.866;12.750;2022-08-11T07:57:20;4.37;;;3.37;;
4375;SDS011;2202;50.866;12.750;2022-08-11T08:00:06;4.53;;;3.40;;
4375;SDS011;2202;50.866;12.750;2022-08-11T08:02:51;4.10;;;3.47;;
4375;SDS011;2202;50.866;12.750;2022-08-11T08:05:37;4.30;;;3.60;;
4375;SDS011;2202;50.866;12.750;2022-08-11T08:08:22;6.03;;;3.50;;
4375;SDS011;2202;50.866;12.750;2022-08-11T08:11:08;5.97;;;3.30;;
4375;SDS011;2202;50.866;12.750;2022-08-11T08:13:54;5.83;;;3.60;;
4375;SDS011;2202;50.866;12.750;2022-08-11T08:16:39;5.03;;;3.90;;
4375;SDS011;2202;50.866;12.750;2022-08-11T08:19:25;6.37;;;3.37;;
4375;SDS011;2202;50.866;12.750;2022-08-11T08:21:53;7.90;;;3.40;;
4375;SDS011;2202;50.866;12.750;2022-08-11T08:24:21;5.60;;;3.37;;
4375;SDS011;2202;50.866;12.750;2022-08-11T08:26:48;5.67;;;3.60;;
4375;SDS011;2202;50.866;12.750;2022-08-11T08:29:25;6.30;;;3.77;;
4375;SDS011;2202;50.866;12.750;2022-08-11T08:32:12;5.23;;;3.53;;
4375;SDS011;2202;50.866;12.750;2022-08-11T08:34:40;5.33;;;3.47;;
4375;SDS011;2202;50.866;12.750;2022-08-11T08:37:09;5.20;;;3.60;;
4375;SDS011;2202;50.866;12.750;2022-08-11T08:39:37;4.50;;;3.57;;
4375;SDS011;2202;50.866;12.750;2022-08-11T08:42:05;5.00;;;3.60;;
4375;SDS011;2202;50.866;12.750;2022-08-11T08:44:38;4.17;;;3.50;;
4375;SDS011;2202;50.866;12.750;2022-08-11T08:49:44;6.80;;;3.97;;
4375;SDS011;2202;50.866;12.750;2022-08-11T08:52:17;5.17;;;3.93;;
4375;SDS011;2202;50.866;12.750;2022-08-11T08:54:47;4.13;;;3.73;;
4375;SDS011;2202;50.866;12.750;2022-08-11T08:57:18;4.57;;;3.87;;
4375;SDS011;2202;50.866;12.750;2022-08-11T08:59:47;5.70;;;4.03;;
4375;SDS011;2202;50.866;12.750;2022-08-11T09:02:16;4.17;;;3.40;;
4375;SDS011;2202;50.866;12.750;2022-08-11T09:04:44;7.20;;;3.80;;
4375;SDS011;2202;50.866;12.750;2022-08-11T09:07:13;4.73;;;3.40;;
4375;SDS011;2202;50.866;12.750;2022-08-11T09:09:44;7.10;;;3.73;;
4375;SDS011;2202;50.866;12.750;2022-08-11T09:12:13;3.93;;;3.53;;
4375;SDS011;2202;50.866;12.750;2022-08-11T09:14:42;6.70;;;3.70;;
4375;SDS011;2202;50.866;12.750;2022-08-11T09:17:29;4.60;;;3.60;;
4375;SDS011;2202;50.866;12.750;2022-08-11T09:19:59;8.30;;;3.60;;
4375;SDS011;2202;50.866;12.750;2022-08-11T09:22:31;5.53;;;3.40;;
4375;SDS011;2202;50.866;12.750;2022-08-11T09:25:19;4.00;;;3.60;;
4375;SDS011;2202;50.866;12.750;2022-08-11T09:28:13;4.17;;;3.60;;
4375;SDS011;2202;50.866;12.750;2022-08-11T09:30:42;3.30;;;3.00;;
4375;SDS011;2202;50.866;12.750;2022-08-11T09:33:13;6.57;;;3.67;;
4375;SDS011;2202;50.866;12.750;2022-08-11T09:35:41;4.53;;;4.13;;
4375;SDS011;2202;50.866;12.750;2022-08-11T09:38:12;5.67;;;4.50;;
4375;SDS011;2202;50.866;12.750;2022-08-11T09:40:59;5.27;;;3.70;;
4375;SDS011;2202;50.866;12.750;2022-08-11T09:43:30;5.60;;;3.80;;
4375;SDS011;2202;50.866;12.750;2022-08-11T09:46:15;5.23;;;3.77;;
4375;SDS011;2202;50.866;12.750;2022-08-11T09:48:47;8.47;;;3.80;;
4375;SDS011;2202;50.866;12.750;2022-08-11T09:51:14;5.33;;;4.20;;
4375;SDS011;2202;50.866;12.750;2022-08-11T09:53:42;3.87;;;3.57;;
4375;SDS011;2202;50.866;12.750;2022-08-11T09:56:12;3.80;;;3.33;;
4375;SDS011;2202;50.866;12.750;2022-08-11T09:58:59;6.97;;;3.93;;
4375;SDS011;2202;50.866;12.750;2022-08-11T10:01:29;4.33;;;3.50;;
4375;SDS011;2202;50.866;12.750;2022-08-11T10:03:59;3.60;;;3.30;;
4375;SDS011;2202;50.866;12.750;2022-08-11T10:06:30;6.07;;;3.70;;
4375;SDS011;2202;50.866;12.750;2022-08-11T10:09:20;5.00;;;4.10;;
4375;SDS011;2202;50.866;12.750;2022-08-11T10:11:52;4.87;;;4.37;;
4375;SDS011;2202;50.866;12.750;2022-08-11T10:14:23;4.93;;;3.93;;
4375;SDS011;2202;50.866;12.750;2022-08-11T10:17:08;4.90;;;3.83;;
4375;SDS011;2202;50.866;12.750;2022-08-11T10:19:38;4.97;;;4.03;;
4375;SDS011;2202;50.866;12.750;2022-08-11T10:22:08;4.37;;;3.97;;
4375;SDS011;2202;50.866;12.750;2022-08-11T10:24:53;8.53;;;3.83;;
4375;SDS011;2202;50.866;12.750;2022-08-11T10:27:41;4.73;;;4.10;;
4375;SDS011;2202;50.866;12.750;2022-08-11T10:30:09;10.50;;;4.20;;
4375;SDS011;2202;50.866;12.750;2022-08-11T10:32:54;4.80;;;3.40;;
4375;SDS011;2202;50.866;12.750;2022-08-11T10:35:41;3.47;;;3.03;;
4375;SDS011;2202;50.866;12.750;2022-08-11T10:38:11;3.60;;;3.30;;
4375;SDS011;2202;50.866;12.750;2022-08-11T10:40:39;4.83;;;4.00;;
4375;SDS011;2202;50.866;12.750;2022-08-11T10:43:12;4.27;;;3.20;;
4375;SDS011;2202;50.866;12.750;2022-08-11T10:45:40;9.93;;;3.80;;
4375;SDS011;2202;50.866;12.750;2022-08-11T10:48:27;3.57;;;3.27;;
4375;SDS011;2202;50.866;12.750;2022-08-11T10:50:56;4.93;;;3.90;;
4375;SDS011;2202;50.866;12.750;2022-08-11T10:53:41;6.97;;;3.77;;
4375;SDS011;2202;50.866;12.750;2022-08-11T10:56:27;3.33;;;3.03;;
4375;SDS011;2202;50.866;12.750;2022-08-11T10:59:13;3.70;;;3.30;;
4375;SDS011;2202;50.866;12.750;2022-08-11T11:01:41;3.90;;;3.60;;
4375;SDS011;2202;50.866;12.750;2022-08-11T11:04:11;4.90;;;3.50;;
4375;SDS011;2202;50.866;12.750;2022-08-11T11:06:42;8.00;;;3.73;;
4375;SDS011;2202;50.866;12.750;2022-08-11T11:09:16;11.97;;;3.13;;
4375;SDS011;2202;50.866;12.750;2022-08-11T11:11:47;5.37;;;3.60;;
4375;SDS011;2202;50.866;12.750;2022-08-11T11:14:35;6.10;;;4.07;;
4375;SDS011;2202;50.866;12.750;2022-08-11T11:17:27;8.90;;;4.13;;
4375;SDS011;2202;50.866;12.750;2022-08-11T11:20:13;4.93;;;3.40;;
4375;SDS011;2202;50.866;12.750;2022-08-11T11:22:44;5.67;;;4.33;;
4375;SDS011;2202;50.866;12.750;2022-08-11T11:25:20;6.17;;;3.60;;
4375;SDS011;2202;50.866;12.750;2022-08-11T11:27:56;8.40;;;4.33;;
4375;SDS011;2202;50.866;12.750;2022-08-11T11:30:36;5.27;;;4.03;;
4375;SDS011;2202;50.866;12.750;2022-08-11T11:33:13;3.77;;;3.47;;
4375;SDS011;2202;50.866;12.750;2022-08-11T11:35:48;7.50;;;3.73;;
4375;SDS011;2202;50.866;12.750;2022-08-11T11:38:23;5.83;;;4.10;;
4375;SDS011;2202;50.866;12.750;2022-08-11T11:40:51;9.00;;;5.27;;
4375;SDS011;2202;50.866;12.750;2022-08-11T11:43:32;7.80;;;4.50;;
4375;SDS011;2202;50.866;12.750;2022-08-11T11:46:02;4.50;;;3.77;;
4375;SDS011;2202;50.866;12.750;2022-08-11T11:48:31;4.73;;;4.17;;
4375;SDS011;2202;50.866;12.750;2022-08-11T11:51:00;6.33;;;4.50;;
4375;SDS011;2202;50.866;12.750;2022-08-11T11:53:28;4.90;;;3.60;;
4375;SDS011;2202;50.866;12.750;2022-08-11T11:55:55;5.93;;;3.90;;
4375;SDS011;2202;50.866;12.750;2022-08-11T11:58:24;4.47;;;4.07;;
4375;SDS011;2202;50.866;12.750;2022-08-11T12:01:12;4.40;;;3.27;;
4375;SDS011;2202;50.866;12.750;2022-08-11T12:03:44;5.93;;;3.83;;
4375;SDS011;2202;50.866;12.750;2022-08-11T12:06:13;5.23;;;3.87;;
4375;SDS011;2202;50.866;12.750;2022-08-11T12:08:43;6.83;;;4.27;;
4375;SDS011;2202;50.866;12.750;2022-08-11T12:11:13;9.37;;;3.60;;
4375;SDS011;2202;50.866;12.750;2022-08-11T12:13:59;7.40;;;3.73;;
4375;SDS011;2202;50.866;12.750;2022-08-11T12:16:30;6.67;;;4.30;;
4375;SDS011;2202;50.866;12.750;2022-08-11T12:18:59;5.10;;;4.20;;
4375;SDS011;2202;50.866;12.750;2022-08-11T12:21:27;5.63;;;4.87;;
4375;SDS011;2202;50.866;12.750;2022-08-11T12:23:55;10.03;;;4.73;;
4375;SDS011;2202;50.866;12.750;2022-08-11T12:26:42;8.47;;;4.07;;
4375;SDS011;2202;50.866;12.750;2022-08-11T12:29:28;6.20;;;4.40;;
4375;SDS011;2202;50.866;12.750;2022-08-11T12:31:57;5.70;;;4.43;;
4375;SDS011;2202;50.866;12.750;2022-08-11T12:34:25;5.80;;;4.20;;
4375;SDS011;2202;50.866;12.750;2022-08-11T12:36:54;4.53;;;4.10;;
4375;SDS011;2202;50.866;12.750;2022-08-11T12:39:23;5.03;;;4.20;;
4375;SDS011;2202;50.866;12.750;2022-08-11T12:42:06;5.00;;;3.90;;
4375;SDS011;2202;50.866;12.750;2022-08-11T12:44:52;10.20;;;3.67;;
4375;SDS011;2202;50.866;12.750;2022-08-11T12:47:39;5.77;;;4.10;;
4375;SDS011;2202;50.866;12.750;2022-08-11T12:50:23;4.50;;;3.80;;
4375;SDS011;2202;50.866;12.750;2022-08-11T12:53:08;4.53;;;3.93;;
4375;SDS011;2202;50.866;12.750;2022-08-11T12:55:38;4.37;;;3.73;;
4375;SDS011;2202;50.866;12.750;2022-08-11T12:58:24;6.57;;;3.87;;
4375;SDS011;2202;50.866;12.750;2022-08-11T13:00:52;4.77;;;3.87;;
4375;SDS011;2202;50.866;12.750;2022-08-11T13:03:38;5.00;;;3.23;;
4375;SDS011;2202;50.866;12.750;2022-08-11T13:06:23;3.70;;;3.30;;
4375;SDS011;2202;50.866;12.750;2022-08-11T13:08:50;3.73;;;3.43;;
4375;SDS011;2202;50.866;12.750;2022-08-11T13:11:18;4.20;;;3.67;;
4375;SDS011;2202;50.866;12.750;2022-08-11T13:14:03;8.10;;;4.07;;
4375;SDS011;2202;50.866;12.750;2022-08-11T13:16:31;6.83;;;3.83;;
4375;SDS011;2202;50.866;12.750;2022-08-11T13:19:21;3.93;;;3.17;;
4375;SDS011;2202;50.866;12.750;2022-08-11T13:21:49;3.60;;;3.30;;
4375;SDS011;2202;50.866;12.750;2022-08-11T13:24:18;5.53;;;3.83;;
4375;SDS011;2202;50.866;12.750;2022-08-11T13:26:46;5.60;;;4.00;;
4375;SDS011;2202;50.866;12.750;2022-08-11T13:29:15;4.10;;;3.80;;
4375;SDS011;2202;50.866;12.750;2022-08-11T13:31:43;6.00;;;3.43;;
4375;SDS011;2202;50.866;12.750;2022-08-11T13:34:11;3.93;;;3.47;;
4375;SDS011;2202;50.866;12.750;2022-08-11T13:36:41;4.50;;;3.73;;
4375;SDS011;2202;50.866;12.750;2022-08-11T13:39:08;4.20;;;3.33;;
4375;SDS011;2202;50.866;12.750;2022-08-11T13:41:36;7.47;;;3.90;;
4375;SDS011;2202;50.866;12.750;2022-08-11T13:44:06;3.77;;;3.30;;
4375;SDS011;2202;50.866;12.750;2022-08-11T13:46:36;9.53;;;3.80;;
4375;SDS011;2202;50.866;12.750;2022-08-11T13:49:05;7.07;;;2.93;;
4375;SDS011;2202;50.866;12.750;2022-08-11T13:51:34;5.23;;;2.90;;
4375;SDS011;2202;50.866;12.750;2022-08-11T13:54:04;6.50;;;3.20;;
4375;SDS011;2202;50.866;12.750;2022-08-11T13:56:34;5.50;;;3.73;;
4375;SDS011;2202;50.866;12.750;2022-08-11T13:59:04;7.23;;;3.40;;
4375;SDS011;2202;50.866;12.750;2022-08-11T14:01:34;4.10;;;3.70;;
4375;SDS011;2202;50.866;12.750;2022-08-11T14:04:07;4.30;;;2.83;;
4375;SDS011;2202;50.866;12.750;2022-08-11T14:06:36;8.37;;;3.67;;
4375;SDS011;2202;50.866;12.750;2022-08-11T14:09:08;12.50;;;3.20;;
4375;SDS011;2202;50.866;12.750;2022-08-11T14:11:36;4.83;;;3.20;;
4375;SDS011;2202;50.866;12.750;2022-08-11T14:14:26;6.57;;;3.43;;
4375;SDS011;2202;50.866;12.750;2022-08-11T14:17:00;5.43;;;3.53;;
4375;SDS011;2202;50.866;12.750;2022-08-11T14:19:33;6.50;;;3.00;;
4375;SDS011;2202;50.866;12.750;2022-08-11T14:22:04;3.83;;;2.90;;
4375;SDS011;2202;50.866;12.750;2022-08-11T14:24:32;5.10;;;2.67;;
4375;SDS011;2202;50.866;12.750;2022-08-11T14:27:01;15.10;;;3.57;;
4375;SDS011;2202;50.866;12.750;2022-08-11T14:29:30;5.27;;;3.23;;
4375;SDS011;2202;50.866;12.750;2022-08-11T14:32:03;5.90;;;3.00;;
4375;SDS011;2202;50.866;12.750;2022-08-11T14:34:31;3.73;;;2.43;;
4375;SDS011;2202;50.866;12.750;2022-08-11T14:37:00;4.43;;;2.70;;
4375;SDS011;2202;50.866;12.750;2022-08-11T14:39:33;11.50;;;2.90;;
4375;SDS011;2202;50.866;12.750;2022-08-11T14:42:04;3.47;;;2.87;;
4375;SDS011;2202;50.866;12.750;2022-08-11T14:44:51;6.30;;;2.90;;
4375;SDS011;2202;50.866;12.750;2022-08-11T14:47:56;4.30;;;2.70;;
4375;SDS011;2202;50.866;12.750;2022-08-11T14:50:26;5.57;;;3.40;;
4375;SDS011;2202;50.866;12.750;2022-08-11T14:52:55;9.70;;;2.90;;
4375;SDS011;2202;50.866;12.750;2022-08-11T14:55:26;3.43;;;2.90;;
4375;SDS011;2202;50.866;12.750;2022-08-11T14:58:13;5.83;;;3.20;;
4375;SDS011;2202;50.866;12.750;2022-08-11T15:00:42;7.83;;;3.23;;
4375;SDS011;2202;50.866;12.750;2022-08-11T15:03:10;3.10;;;2.57;;
4375;SDS011;2202;50.866;12.750;2022-08-11T15:05:38;4.70;;;2.67;;
4375;SDS011;2202;50.866;12.750;2022-08-11T15:08:08;3.33;;;2.30;;
4375;SDS011;2202;50.866;12.750;2022-08-11T15:10:39;4.10;;;2.47;;
4375;SDS011;2202;50.866;12.750;2022-08-11T15:13:06;4.27;;;2.60;;
4375;SDS011;2202;50.866;12.750;2022-08-11T15:15:35;6.23;;;2.57;;
4375;SDS011;2202;50.866;12.750;2022-08-11T15:18:21;3.83;;;2.50;;
4375;SDS011;2202;50.866;12.750;2022-08-11T15:20:50;2.83;;;2.00;;
4375;SDS011;2202;50.866;12.750;2022-08-11T15:23:37;7.30;;;2.23;;
4375;SDS011;2202;50.866;12.750;2022-08-11T15:26:27;4.13;;;2.57;;
4375;SDS011;2202;50.866;12.750;2022-08-11T15:29:17;4.50;;;2.20;;
4375;SDS011;2202;50.866;12.750;2022-08-11T15:32:05;2.57;;;2.10;;
4375;SDS011;2202;50.866;12.750;2022-08-11T15:34:52;6.83;;;2.00;;
4375;SDS011;2202;50.866;12.750;2022-08-11T15:37:38;3.47;;;2.40;;
4375;SDS011;2202;50.866;12.750;2022-08-11T15:40:09;2.80;;;2.17;;
4375;SDS011;2202;50.866;12.750;2022-08-11T15:43:00;4.50;;;2.30;;
4375;SDS011;2202;50.866;12.750;2022-08-11T15:45:49;2.90;;;1.90;;
4375;SDS011;2202;50.866;12.750;2022-08-11T15:48:27;6.80;;;2.93;;
4375;SDS011;2202;50.866;12.750;2022-08-11T15:51:02;5.10;;;2.17;;
4375;SDS011;2202;50.866;12.750;2022-08-11T15:53:38;4.30;;;2.70;;
4375;SDS011;2202;50.866;12.750;2022-08-11T15:56:08;4.73;;;2.23;;
4375;SDS011;2202;50.866;12.750;2022-08-11T15:58:39;2.73;;;1.80;;
4375;SDS011;2202;50.866;12.750;2022-08-11T16:01:28;3.73;;;2.10;;
4375;SDS011;2202;50.866;12.750;2022-08-11T16:04:15;3.60;;;2.07;;
4375;SDS011;2202;50.866;12.750;2022-08-11T16:06:49;3.37;;;1.73;;
4375;SDS011;2202;50.866;12.750;2022-08-11T16:09:22;4.17;;;1.90;;
4375;SDS011;2202;50.866;12.750;2022-08-11T16:11:55;6.50;;;2.10;;
4375;SDS011;2202;50.866;12.750;2022-08-11T16:14:26;4.07;;;1.87;;
4375;SDS011;2202;50.866;12.750;2022-08-11T16:17:13;3.27;;;1.70;;
4375;SDS011;2202;50.866;12.750;2022-08-11T16:19:43;4.60;;;1.87;;
4375;SDS011;2202;50.866;12.750;2022-08-11T16:22:13;4.93;;;2.10;;
4375;SDS011;2202;50.866;12.750;2022-08-11T16:24:52;3.53;;;2.07;;
4375;SDS011;2202;50.866;12.750;2022-08-11T16:27:20;5.67;;;2.10;;
4375;SDS011;2202;50.866;12.750;2022-08-11T16:29:49;4.40;;;2.03;;
4375;SDS011;2202;50.866;12.750;2022-08-11T16:32:19;5.43;;;2.33;;
4375;SDS011;2202;50.866;12.750;2022-08-11T16:34:49;2.90;;;2.13;;
4375;SDS011;2202;50.866;12.750;2022-08-11T16:37:37;7.07;;;1.77;;
4375;SDS011;2202;50.866;12.750;2022-08-11T16:40:22;5.73;;;2.30;;
4375;SDS011;2202;50.866;12.750;2022-08-11T16:42:51;2.70;;;1.60;;
4375;SDS011;2202;50.866;12.750;2022-08-11T16:45:38;4.03;;;1.60;;
4375;SDS011;2202;50.866;12.750;2022-08-11T16:48:24;3.30;;;2.10;;
4375;SDS011;2202;50.866;12.750;2022-08-11T16:50:54;4.10;;;1.90;;
4375;SDS011;2202;50.866;12.750;2022-08-11T16:53:24;3.10;;;1.87;;
4375;SDS011;2202;50.866;12.750;2022-08-11T16:55:51;3.43;;;1.90;;
4375;SDS011;2202;50.866;12.750;2022-08-11T16:58:20;7.47;;;2.40;;
4375;SDS011;2202;50.866;12.750;2022-08-11T17:01:07;3.07;;;1.90;;